KFTY/FTY METAR and TAF weather

Enter ICAO airport designator
Station Type Date Time Source
KFTY METAR 2021/07/30 07:53 UTC NOAA

KFTY 300753Z 10SM CLR 26/22 A3000 RMK AO2 SLP147 T02560217 $


Station Type Date Time Source
KFTY Decoded METAR 2021/07/30 07:53 UTC NOAA

ATLANTA FULTON COUNTY AIRPORT , GA, United States (KFTY) 33-47N 84-31W 263M
Jul 30, 2021 - 03:53 AM EDT / 2021.07.30 0753 UTC
Visibility: 10 mile(s):0
Sky conditions: clear
Temperature: 78.1 F (25.6 C)
Dew Point: 71.1 F (21.7 C)
Relative Humidity: 79%
Pressure (altimeter): 30 in. Hg (1015 hPa)
ob: KFTY 300753Z 10SM CLR 26/22 A3000 RMK AO2 SLP147 T02560217
cycle: 8

Station Type Date Time Source
KFTY TAF 2021/07/30 06:45 UTC NOAA

TAF KFTY 300542Z 3006/3106 00000KT P6SM SCT250
FM301500 30005KT P6SM FEW040 FEW250
FM301700 30008KT P6SM SCT050 SCT150
FM310200 31006KT P6SM SCT150

Example: see airport list